Sumise Maru No.22 — JD3589 — position and weather

sailwx.info

Track history (hours):
 
Tides and Currents Weather Stations Pressure Air Temp Water Temp Dewpoint Dewpoint Depression Visibility Wind Speed Wind Dir Waves Ship Positions

Sumise Maru No.22

Last reported at 2017-Dec-11 17:00 UTC. Time now 2017-Dec-12 04:21 UTC.
Position N 34°27' E 138°21'.

Length 116 m; draft 4 m.

Type: Cargo ship. MMSI: 431005246.

Date/timePositionNaut miles runAvg speedWind from/ knotsBaromVisibWave heightAir tempDewpointWater temp
2017-Dec-11 17:00N 34°27' E 138°21'22 0.5
2017-Dec-09 15:46N 34°22' E 137°54'1312.8
2017-Dec-09 14:43N 34°28' E 138°09'311.5
2017-Dec-09 14:29N 34°30' E 138°11'712.1
2017-Dec-09 13:56N 34°33' E 138°19'613.1
2017-Dec-09 13:30N 34°38' E 138°22'713.9
2017-Dec-09 13:00N 34°45' E 138°25'714.0
2017-Dec-09 12:30N 34°51' E 138°28'713.5
2017-Dec-09 12:00N 34°57' E 138°32'4 8.6
2017-Dec-09 11:31N 35°01' E 138°31'2 3.6
2017-Dec-09 11:00N 34°60' E 138°30'0 0.0
2017-Dec-09 10:29N 34°60' E 138°30'0 0.0
2017-Dec-09 09:59N 34°60' E 138°30'0 0.0
2017-Dec-09 09:29N 34°60' E 138°30'0 0.0
2017-Dec-09 08:59N 34°60' E 138°30'0 0.0
2017-Dec-09 08:29N 34°60' E 138°30'0 0.0
2017-Dec-09 07:59N 34°60' E 138°30'0 0.0
2017-Dec-09 07:29N 34°60' E 138°30'0 0.0
2017-Dec-09 06:59N 34°60' E 138°30'0 0.0
2017-Dec-09 06:29N 34°60' E 138°30'0 0.0
2017-Dec-09 05:59N 34°60' E 138°30'0 0.0
2017-Dec-09 05:29N 34°60' E 138°30'0 0.0
2017-Dec-09 04:59N 34°60' E 138°30'0 0.0
2017-Dec-09 04:29N 34°60' E 138°30'0 0.0
2017-Dec-09 03:59N 34°60' E 138°30'0 0.0
2017-Dec-09 03:29N 34°60' E 138°30'0 0.0
2017-Dec-09 02:56N 34°60' E 138°30'0 0.0
2017-Dec-09 02:26N 34°60' E 138°30'0 0.0
2017-Dec-09 01:59N 34°60' E 138°30'0 0.0
2017-Dec-09 01:29N 34°60' E 138°30'0 0.0
2017-Dec-09 00:59N 34°60' E 138°30'0 0.0
2017-Dec-09 00:29N 34°60' E 138°30'0 0.0
2017-Dec-08 23:50N 34°60' E 138°30'0 0.0
2017-Dec-08 23:29N 34°60' E 138°30'0 0.0
2017-Dec-08 22:59N 34°60' E 138°30'0 0.3
2017-Dec-08 22:31N 34°60' E 138°30'3 5.4
2017-Dec-08 22:00N 35°01' E 138°33'611.7
2017-Dec-08 21:31N 34°56' E 138°31'713.1
2017-Dec-08 21:00N 34°50' E 138°28'613.2
2017-Dec-08 20:30N 34°44' E 138°25'713.5
2017-Dec-08 19:59N 34°37' E 138°21'713.5
2017-Dec-08 19:30N 34°32' E 138°16'714.7
2017-Dec-08 19:00N 34°29' E 138°08'814.6
2017-Dec-08 18:28N 34°27' E 137°59'152 6.4
2017-Dec-07 18:35N 33°51' E 135°00'113.8
2017-Dec-07 18:30N 33°52' E 134°60'914.0
2017-Dec-07 17:54N 34°01' E 135°00'514.0
2017-Dec-07 17:30N 34°06' E 135°01'713.9
2017-Dec-07 17:01N 34°13' E 135°04'3 6.2
2017-Dec-07 16:30N 34°14' E 135°08'0 0.1
2017-Dec-07 15:58N 34°14' E 135°08'0 0.1
2017-Dec-07 15:28N 34°14' E 135°08'0 0.0
2017-Dec-07 14:58N 34°14' E 135°08'0 0.0
2017-Dec-07 14:28N 34°14' E 135°08'0 0.1
2017-Dec-07 13:58N 34°14' E 135°08'0 0.0
2017-Dec-07 13:28N 34°14' E 135°08'0 0.0
2017-Dec-07 12:58N 34°14' E 135°08'0 0.0
2017-Dec-07 12:25N 34°14' E 135°08'0 0.0
2017-Dec-07 11:58N 34°14' E 135°08'0 0.0
2017-Dec-07 11:25N 34°14' E 135°08'0 0.0
2017-Dec-07 10:58N 34°14' E 135°08'0 0.0
2017-Dec-07 10:28N 34°14' E 135°08'0 0.0
2017-Dec-07 08:46N 34°14' E 135°08'0 0.0
2017-Dec-07 08:22N 34°14' E 135°08'0 0.0
2017-Dec-07 07:58N 34°14' E 135°08'0 0.0
2017-Dec-07 07:28N 34°14' E 135°08'0 0.0
2017-Dec-07 06:55N 34°14' E 135°08'0 0.1
2017-Dec-07 06:28N 34°14' E 135°08'0 0.1
2017-Dec-07 05:58N 34°14' E 135°08'0 0.0
2017-Dec-07 05:28N 34°14' E 135°08'0 0.7
2017-Dec-07 05:00N 34°14' E 135°08'510.8
2017-Dec-07 04:30N 34°15' E 135°01'4 8.0
2017-Dec-07 04:00N 34°19' E 134°59'611.1
2017-Dec-07 03:30N 34°24' E 135°01'612.3
2017-Dec-07 03:00N 34°30' E 135°02'611.2
2017-Dec-07 02:30N 34°35' E 135°03'5 9.1
2017-Dec-07 02:01N 34°36' E 134°57'510.6
2017-Dec-07 01:30N 34°37' E 134°51'611.6
2017-Dec-07 01:00N 34°39' E 134°44'611.6
2017-Dec-07 00:31N 34°42' E 134°39'812.5
2017-Dec-06 23:53N 34°43' E 134°29'512.3
2017-Dec-06 23:30N 34°42' E 134°23'  
2017-Dec-04 10:28N 35°26' E 139°41'0 0.0
2017-Dec-04 09:58N 35°26' E 139°41'0 0.1
2017-Dec-04 09:30N 35°26' E 139°41'1 2.9
2017-Dec-04 09:00N 35°25' E 139°42'510.5
2017-Dec-04 08:31N 35°19' E 139°43'612.1
2017-Dec-04 08:00N 35°14' E 139°47'613.0
2017-Dec-04 07:31N 35°08' E 139°45'713.1
2017-Dec-04 07:00N 35°02' E 139°41'814.5
2017-Dec-04 06:29N 34°58' E 139°33'815.4
2017-Dec-04 05:59N 34°53' E 139°26'1115.3
2017-Dec-04 05:15N 34°46' E 139°16'415.0
2017-Dec-04 05:00N 34°43' E 139°12'715.2
2017-Dec-04 04:31N 34°38' E 139°06'815.1
2017-Dec-04 03:58N 34°33' E 138°59'2713.8
2017-Dec-04 02:02N 34°25' E 138°28'313.6
2017-Dec-04 01:49N 34°24' E 138°24'16911.8
2017-Dec-03 11:31N 33°46' E 135°05'613.8
2017-Dec-03 11:03N 33°51' E 135°00'113.7
2017-Dec-03 10:59N 33°52' E 134°60'713.5
2017-Dec-03 10:30N 33°59' E 134°59'713.4
2017-Dec-03 10:00N 34°05' E 134°59'713.5
2017-Dec-03 09:31N 34°12' E 134°58'613.0
2017-Dec-03 09:01N 34°18' E 134°59'612.4
2017-Dec-03 08:30N 34°25' E 135°00'713.1
2017-Dec-03 08:01N 34°31' E 135°02'511.0
2017-Dec-03 07:31N 34°36' E 135°02'612.9
2017-Dec-03 07:01N 34°37' E 134°54'713.9
2017-Dec-03 06:30N 34°39' E 134°46'713.7
2017-Dec-03 06:00N 34°42' E 134°38'813.5
2017-Dec-03 05:25N 34°42' E 134°29'6 8.9
2017-Dec-03 04:45N 34°45' E 134°22'0 0.0
2017-Dec-02 22:56N 34°45' E 134°22'1 2.8
2017-Dec-02 22:26N 34°43' E 134°22'3 4.5
2017-Dec-02 21:52N 34°41' E 134°24'0 0.0
2017-Dec-02 21:28N 34°41' E 134°24'0 0.0
2017-Dec-02 20:52N 34°41' E 134°24'0 0.0
2017-Dec-02 20:28N 34°41' E 134°24'1 2.4
2017-Dec-02 19:59N 34°42' E 134°25'612.6
2017-Dec-02 19:30N 34°42' E 134°33'612.6
2017-Dec-02 19:00N 34°41' E 134°40'612.7
2017-Dec-02 18:30N 34°39' E 134°48'612.2
2017-Dec-02 18:01N 34°37' E 134°55'611.5
2017-Dec-02 17:30N 34°37' E 135°02'4 8.3
2017-Dec-02 17:00N 34°34' E 135°06'611.1
2017-Dec-02 16:30N 34°29' E 135°03'612.3
2017-Dec-02 16:01N 34°23' E 135°02'611.7
2017-Dec-02 15:30N 34°18' E 134°60'5 9.9
2017-Dec-02 15:00N 34°15' E 135°04'3 5.8
2017-Dec-02 14:30N 34°14' E 135°08'0 0.0
2017-Dec-02 13:58N 34°14' E 135°08'0 0.1
2017-Dec-02 13:28N 34°14' E 135°08'0 0.0
2017-Dec-02 12:58N 34°14' E 135°08'0 0.0
2017-Dec-02 12:28N 34°14' E 135°08'0 0.0
2017-Dec-02 11:58N 34°14' E 135°08'0 0.1
2017-Dec-02 11:28N 34°14' E 135°08'0 0.1
2017-Dec-02 10:58N 34°14' E 135°08'0 0.0
2017-Dec-02 10:28N 34°14' E 135°08'0 0.0
2017-Dec-02 09:58N 34°14' E 135°08'0 0.1
2017-Dec-02 09:28N 34°14' E 135°08'0 0.0
2017-Dec-02 08:58N 34°14' E 135°08'0 0.1
2017-Dec-02 08:28N 34°14' E 135°08'0 0.0
2017-Dec-02 07:58N 34°14' E 135°08'0 0.3
2017-Dec-02 07:31N 34°14' E 135°08'4 7.2
2017-Dec-02 07:00N 34°13' E 135°04'713.0
2017-Dec-02 06:30N 34°07' E 135°01'713.2
2017-Dec-02 06:00N 34°00' E 134°59'2 3.4
2017-Dec-02 05:30N 33°59' E 134°57'612.7
2017-Dec-02 05:00N 33°53' E 134°57'  
Track history (hours):
 
Tides and Currents Weather Stations Pressure Air Temp Water Temp Dewpoint Dewpoint Depression Visibility Wind Speed Wind Dir Waves Ship Positions

Sumise Maru No.22

Last reported at 2017-Dec-11 17:00 UTC. Time now 2017-Dec-12 04:21 UTC.
Position N 34°27' E 138°21'.

Length 116 m; draft 4 m.

Type: Cargo ship. MMSI: 431005246.

Date/timePositionNaut miles runAvg speedWind from/ knotsBaromVisibWave heightAir tempDewpointWater temp
2017-Dec-11 17:00N 34°27' E 138°21'22 0.5
2017-Dec-09 15:46N 34°22' E 137°54'1312.8
2017-Dec-09 14:43N 34°28' E 138°09'311.5
2017-Dec-09 14:29N 34°30' E 138°11'712.1
2017-Dec-09 13:56N 34°33' E 138°19'613.1
2017-Dec-09 13:30N 34°38' E 138°22'713.9
2017-Dec-09 13:00N 34°45' E 138°25'714.0
2017-Dec-09 12:30N 34°51' E 138°28'713.5
2017-Dec-09 12:00N 34°57' E 138°32'4 8.6
2017-Dec-09 11:31N 35°01' E 138°31'2 3.6
2017-Dec-09 11:00N 34°60' E 138°30'0 0.0
2017-Dec-09 10:29N 34°60' E 138°30'0 0.0
2017-Dec-09 09:59N 34°60' E 138°30'0 0.0
2017-Dec-09 09:29N 34°60' E 138°30'0 0.0
2017-Dec-09 08:59N 34°60' E 138°30'0 0.0
2017-Dec-09 08:29N 34°60' E 138°30'0 0.0
2017-Dec-09 07:59N 34°60' E 138°30'0 0.0
2017-Dec-09 07:29N 34°60' E 138°30'0 0.0
2017-Dec-09 06:59N 34°60' E 138°30'0 0.0
2017-Dec-09 06:29N 34°60' E 138°30'0 0.0
2017-Dec-09 05:59N 34°60' E 138°30'0 0.0
2017-Dec-09 05:29N 34°60' E 138°30'0 0.0
2017-Dec-09 04:59N 34°60' E 138°30'0 0.0
2017-Dec-09 04:29N 34°60' E 138°30'0 0.0
2017-Dec-09 03:59N 34°60' E 138°30'0 0.0
2017-Dec-09 03:29N 34°60' E 138°30'0 0.0
2017-Dec-09 02:56N 34°60' E 138°30'0 0.0
2017-Dec-09 02:26N 34°60' E 138°30'0 0.0
2017-Dec-09 01:59N 34°60' E 138°30'0 0.0
2017-Dec-09 01:29N 34°60' E 138°30'0 0.0
2017-Dec-09 00:59N 34°60' E 138°30'0 0.0
2017-Dec-09 00:29N 34°60' E 138°30'0 0.0
2017-Dec-08 23:50N 34°60' E 138°30'0 0.0
2017-Dec-08 23:29N 34°60' E 138°30'0 0.0
2017-Dec-08 22:59N 34°60' E 138°30'0 0.3
2017-Dec-08 22:31N 34°60' E 138°30'3 5.4
2017-Dec-08 22:00N 35°01' E 138°33'611.7
2017-Dec-08 21:31N 34°56' E 138°31'713.1
2017-Dec-08 21:00N 34°50' E 138°28'613.2
2017-Dec-08 20:30N 34°44' E 138°25'713.5
2017-Dec-08 19:59N 34°37' E 138°21'713.5
2017-Dec-08 19:30N 34°32' E 138°16'714.7
2017-Dec-08 19:00N 34°29' E 138°08'814.6
2017-Dec-08 18:28N 34°27' E 137°59'152 6.4
2017-Dec-07 18:35N 33°51' E 135°00'113.8
2017-Dec-07 18:30N 33°52' E 134°60'914.0
2017-Dec-07 17:54N 34°01' E 135°00'514.0
2017-Dec-07 17:30N 34°06' E 135°01'713.9
2017-Dec-07 17:01N 34°13' E 135°04'3 6.2
2017-Dec-07 16:30N 34°14' E 135°08'0 0.1
2017-Dec-07 15:58N 34°14' E 135°08'0 0.1
2017-Dec-07 15:28N 34°14' E 135°08'0 0.0
2017-Dec-07 14:58N 34°14' E 135°08'0 0.0
2017-Dec-07 14:28N 34°14' E 135°08'0 0.1
2017-Dec-07 13:58N 34°14' E 135°08'0 0.0
2017-Dec-07 13:28N 34°14' E 135°08'0 0.0
2017-Dec-07 12:58N 34°14' E 135°08'0 0.0
2017-Dec-07 12:25N 34°14' E 135°08'0 0.0
2017-Dec-07 11:58N 34°14' E 135°08'0 0.0
2017-Dec-07 11:25N 34°14' E 135°08'0 0.0
2017-Dec-07 10:58N 34°14' E 135°08'0 0.0
2017-Dec-07 10:28N 34°14' E 135°08'0 0.0
2017-Dec-07 08:46N 34°14' E 135°08'0 0.0
2017-Dec-07 08:22N 34°14' E 135°08'0 0.0
2017-Dec-07 07:58N 34°14' E 135°08'0 0.0
2017-Dec-07 07:28N 34°14' E 135°08'0 0.0
2017-Dec-07 06:55N 34°14' E 135°08'0 0.1
2017-Dec-07 06:28N 34°14' E 135°08'0 0.1
2017-Dec-07 05:58N 34°14' E 135°08'0 0.0
2017-Dec-07 05:28N 34°14' E 135°08'0 0.7
2017-Dec-07 05:00N 34°14' E 135°08'510.8
2017-Dec-07 04:30N 34°15' E 135°01'4 8.0
2017-Dec-07 04:00N 34°19' E 134°59'611.1
2017-Dec-07 03:30N 34°24' E 135°01'612.3
2017-Dec-07 03:00N 34°30' E 135°02'611.2
2017-Dec-07 02:30N 34°35' E 135°03'5 9.1
2017-Dec-07 02:01N 34°36' E 134°57'510.6
2017-Dec-07 01:30N 34°37' E 134°51'611.6
2017-Dec-07 01:00N 34°39' E 134°44'611.6
2017-Dec-07 00:31N 34°42' E 134°39'812.5
2017-Dec-06 23:53N 34°43' E 134°29'512.3
2017-Dec-06 23:30N 34°42' E 134°23'  
2017-Dec-04 10:28N 35°26' E 139°41'0 0.0
2017-Dec-04 09:58N 35°26' E 139°41'0 0.1
2017-Dec-04 09:30N 35°26' E 139°41'1 2.9
2017-Dec-04 09:00N 35°25' E 139°42'510.5
2017-Dec-04 08:31N 35°19' E 139°43'612.1
2017-Dec-04 08:00N 35°14' E 139°47'613.0
2017-Dec-04 07:31N 35°08' E 139°45'713.1
2017-Dec-04 07:00N 35°02' E 139°41'814.5
2017-Dec-04 06:29N 34°58' E 139°33'815.4
2017-Dec-04 05:59N 34°53' E 139°26'1115.3
2017-Dec-04 05:15N 34°46' E 139°16'415.0
2017-Dec-04 05:00N 34°43' E 139°12'715.2
2017-Dec-04 04:31N 34°38' E 139°06'815.1
2017-Dec-04 03:58N 34°33' E 138°59'2713.8
2017-Dec-04 02:02N 34°25' E 138°28'313.6
2017-Dec-04 01:49N 34°24' E 138°24'16911.8
2017-Dec-03 11:31N 33°46' E 135°05'613.8
2017-Dec-03 11:03N 33°51' E 135°00'113.7
2017-Dec-03 10:59N 33°52' E 134°60'713.5
2017-Dec-03 10:30N 33°59' E 134°59'713.4
2017-Dec-03 10:00N 34°05' E 134°59'713.5
2017-Dec-03 09:31N 34°12' E 134°58'613.0
2017-Dec-03 09:01N 34°18' E 134°59'612.4
2017-Dec-03 08:30N 34°25' E 135°00'713.1
2017-Dec-03 08:01N 34°31' E 135°02'511.0
2017-Dec-03 07:31N 34°36' E 135°02'612.9
2017-Dec-03 07:01N 34°37' E 134°54'713.9
2017-Dec-03 06:30N 34°39' E 134°46'713.7
2017-Dec-03 06:00N 34°42' E 134°38'813.5
2017-Dec-03 05:25N 34°42' E 134°29'6 8.9
2017-Dec-03 04:45N 34°45' E 134°22'0 0.0
2017-Dec-02 22:56N 34°45' E 134°22'1 2.8
2017-Dec-02 22:26N 34°43' E 134°22'3 4.5
2017-Dec-02 21:52N 34°41' E 134°24'0 0.0
2017-Dec-02 21:28N 34°41' E 134°24'0 0.0
2017-Dec-02 20:52N 34°41' E 134°24'0 0.0
2017-Dec-02 20:28N 34°41' E 134°24'1 2.4
2017-Dec-02 19:59N 34°42' E 134°25'612.6
2017-Dec-02 19:30N 34°42' E 134°33'612.6
2017-Dec-02 19:00N 34°41' E 134°40'612.7
2017-Dec-02 18:30N 34°39' E 134°48'612.2
2017-Dec-02 18:01N 34°37' E 134°55'611.5
2017-Dec-02 17:30N 34°37' E 135°02'4 8.3
2017-Dec-02 17:00N 34°34' E 135°06'611.1
2017-Dec-02 16:30N 34°29' E 135°03'612.3
2017-Dec-02 16:01N 34°23' E 135°02'611.7
2017-Dec-02 15:30N 34°18' E 134°60'5 9.9
2017-Dec-02 15:00N 34°15' E 135°04'3 5.8
2017-Dec-02 14:30N 34°14' E 135°08'0 0.0
2017-Dec-02 13:58N 34°14' E 135°08'0 0.1
2017-Dec-02 13:28N 34°14' E 135°08'0 0.0
2017-Dec-02 12:58N 34°14' E 135°08'0 0.0
2017-Dec-02 12:28N 34°14' E 135°08'0 0.0
2017-Dec-02 11:58N 34°14' E 135°08'0 0.1
2017-Dec-02 11:28N 34°14' E 135°08'0 0.1
2017-Dec-02 10:58N 34°14' E 135°08'0 0.0
2017-Dec-02 10:28N 34°14' E 135°08'0 0.0
2017-Dec-02 09:58N 34°14' E 135°08'0 0.1
2017-Dec-02 09:28N 34°14' E 135°08'0 0.0
2017-Dec-02 08:58N 34°14' E 135°08'0 0.1
2017-Dec-02 08:28N 34°14' E 135°08'0 0.0
2017-Dec-02 07:58N 34°14' E 135°08'0 0.3
2017-Dec-02 07:31N 34°14' E 135°08'4 7.2
2017-Dec-02 07:00N 34°13' E 135°04'713.0
2017-Dec-02 06:30N 34°07' E 135°01'713.2
2017-Dec-02 06:00N 34°00' E 134°59'2 3.4
2017-Dec-02 05:30N 33°59' E 134°57'612.7
2017-Dec-02 05:00N 33°53' E 134°57'  

Dump ship's entire track history